createdAt,value
2023-04-01T00:01:08.130Z,8.86
2023-04-01T00:03:38.445Z,8.94
2023-04-01T00:06:06.507Z,8.96
2023-04-01T00:08:34.432Z,8.94
2023-04-01T00:11:02.301Z,8.93
2023-04-01T00:13:30.429Z,8.94
2023-04-01T00:15:59.991Z,8.95
2023-04-01T00:18:28.229Z,8.91
2023-04-01T00:20:57.501Z,8.88
2023-04-01T00:23:25.366Z,8.85
2023-04-01T00:25:53.190Z,8.85
2023-04-01T00:28:22.122Z,9.01
2023-04-01T00:30:50.056Z,8.95
2023-04-01T00:33:18.780Z,8.85
2023-04-01T00:35:46.900Z,8.85
2023-04-01T00:38:17.994Z,8.79
2023-04-01T00:40:46.927Z,8.77
2023-04-01T00:43:15.957Z,8.76
2023-04-01T00:45:44.790Z,8.84
2023-04-01T00:48:13.800Z,8.80
2023-04-01T00:50:42.823Z,8.70
2023-04-01T00:53:11.010Z,8.60
2023-04-01T00:55:43.609Z,8.60
2023-04-01T00:58:15.903Z,8.57
2023-04-01T01:00:44.202Z,8.56
2023-04-01T01:03:13.815Z,8.54
2023-04-01T01:05:53.264Z,8.61
2023-04-01T01:08:27.899Z,8.58
2023-04-01T01:10:57.292Z,8.52
2023-04-01T01:13:27.609Z,8.60
2023-04-01T01:15:57.858Z,8.54
2023-04-01T01:18:29.379Z,8.62
2023-04-01T01:21:07.840Z,8.51
2023-04-01T01:23:49.020Z,8.49
2023-04-01T01:26:37.300Z,8.56
2023-04-01T01:29:09.345Z,8.54
2023-04-01T01:31:40.018Z,8.47
2023-04-01T01:34:14.259Z,8.47
2023-04-01T01:36:46.219Z,8.54
2023-04-01T01:39:15.136Z,8.52
2023-04-01T01:41:44.730Z,8.50
2023-04-01T01:44:15.256Z,8.43
2023-04-01T01:46:44.009Z,8.32
2023-04-01T01:49:13.414Z,8.26
2023-04-01T01:51:41.319Z,8.37
2023-04-01T01:54:14.552Z,8.36
2023-04-01T01:56:43.789Z,8.30
2023-04-01T01:59:13.499Z,8.14
2023-04-01T02:01:42.907Z,8.11
2023-04-01T02:04:11.065Z,8.16
2023-04-01T02:06:41.044Z,8.23
2023-04-01T02:09:11.748Z,8.18
2023-04-01T02:11:45.089Z,8.10
2023-04-01T02:14:16.653Z,8.13
2023-04-01T02:16:51.992Z,8.18
2023-04-01T02:19:23.776Z,8.15
2023-04-01T02:21:52.802Z,8.14
2023-04-01T02:24:23.539Z,8.16
2023-04-01T02:26:52.175Z,8.10
2023-04-01T02:29:22.334Z,8.16
2023-04-01T02:31:52.396Z,8.20
2023-04-01T02:34:21.037Z,7.67
2023-04-01T02:36:50.193Z,7.95
2023-04-01T02:39:18.730Z,8.13
2023-04-01T02:41:48.033Z,8.12
2023-04-01T02:44:17.839Z,8.13
2023-04-01T02:46:46.135Z,7.99
2023-04-01T02:49:14.157Z,8.04
2023-04-01T02:51:42.018Z,8.05
2023-04-01T02:54:10.199Z,7.72
2023-04-01T02:56:38.106Z,8.05
2023-04-01T02:59:07.474Z,8.06
2023-04-01T03:01:35.627Z,8.11
2023-04-01T03:04:03.563Z,8.10
2023-04-01T03:06:31.495Z,8.13
2023-04-01T03:08:59.401Z,8.06
2023-04-01T03:11:28.026Z,7.83
2023-04-01T03:13:55.969Z,7.70
2023-04-01T03:16:25.259Z,7.69
2023-04-01T03:18:53.759Z,7.74
2023-04-01T03:21:22.935Z,7.79
2023-04-01T03:23:50.780Z,7.85
2023-04-01T03:26:19.199Z,7.90
2023-04-01T03:28:47.121Z,7.93
2023-04-01T03:31:15.815Z,8.06
2023-04-01T03:33:45.385Z,8.06
2023-04-01T03:36:14.000Z,7.91
2023-04-01T03:38:42.672Z,7.79
2023-04-01T03:41:14.768Z,7.64
2023-04-01T03:43:43.141Z,7.66
2023-04-01T03:46:11.449Z,7.65
2023-04-01T03:48:39.530Z,7.62
2023-04-01T03:51:10.780Z,7.65
2023-04-01T03:53:38.725Z,7.74
2023-04-01T03:56:08.292Z,7.50
2023-04-01T03:58:37.555Z,7.79
2023-04-01T04:01:05.830Z,7.88
2023-04-01T04:03:34.261Z,7.92
2023-04-01T04:06:02.302Z,7.88
2023-04-01T04:08:31.587Z,7.88
2023-04-01T04:10:59.461Z,7.94
2023-04-01T04:13:27.379Z,7.93
2023-04-01T04:15:55.277Z,7.96
2023-04-01T04:18:23.156Z,7.94
2023-04-01T04:20:52.239Z,7.84
2023-04-01T04:23:21.111Z,7.89
2023-04-01T04:25:57.334Z,7.94
2023-04-01T04:28:25.294Z,7.92
2023-04-01T04:30:53.400Z,7.94
2023-04-01T04:33:21.633Z,7.82
2023-04-01T04:35:49.597Z,7.88
2023-04-01T04:38:17.465Z,7.86
2023-04-01T04:40:45.693Z,7.87
2023-04-01T04:43:16.263Z,7.70
2023-04-01T04:45:44.152Z,7.64
2023-04-01T04:48:12.055Z,7.63
2023-04-01T04:50:39.984Z,7.67
2023-04-01T04:53:07.842Z,7.68
2023-04-01T04:55:35.799Z,7.76
2023-04-01T04:58:03.817Z,7.74
2023-04-01T05:00:33.126Z,7.75
2023-04-01T05:03:01.187Z,7.75
2023-04-01T05:05:29.105Z,7.80
2023-04-01T05:07:57.021Z,7.71
2023-04-01T05:10:25.153Z,7.71
2023-04-01T05:12:53.345Z,7.48
2023-04-01T05:15:21.547Z,7.76
2023-04-01T05:17:50.964Z,7.81
2023-04-01T05:20:19.244Z,7.86
2023-04-01T05:22:47.425Z,7.84
2023-04-01T05:25:15.584Z,7.80
2023-04-01T05:27:43.778Z,7.75
2023-04-01T05:30:12.162Z,7.88
2023-04-01T05:32:40.767Z,7.90
2023-04-01T05:35:10.982Z,7.78
2023-04-01T05:37:39.118Z,7.83
2023-04-01T05:40:07.766Z,7.90
2023-04-01T05:42:37.720Z,7.96
2023-04-01T05:45:06.676Z,8.05
2023-04-01T05:47:34.711Z,8.17
2023-04-01T05:50:02.781Z,8.22
2023-04-01T05:52:32.158Z,8.34
2023-04-01T05:55:01.425Z,8.44
2023-04-01T05:57:29.391Z,8.40
2023-04-01T05:59:57.312Z,8.31
2023-04-01T06:02:25.345Z,8.25
2023-04-01T06:04:56.149Z,8.36
2023-04-01T06:07:24.135Z,8.44
2023-04-01T06:09:53.412Z,8.50
2023-04-01T06:12:35.693Z,8.55
2023-04-01T06:15:12.074Z,8.72
2023-04-01T06:17:55.181Z,8.80
2023-04-01T06:20:29.294Z,8.86
2023-04-01T06:23:13.360Z,8.98
2023-04-01T06:25:54.441Z,9.02
2023-04-01T06:28:59.887Z,9.06
2023-04-01T06:31:41.859Z,9.19
2023-04-01T06:34:34.914Z,9.39
2023-04-01T06:37:18.367Z,9.55
2023-04-01T06:40:25.438Z,9.78
2023-04-01T06:43:09.994Z,9.88
2023-04-01T06:45:46.273Z,10.00
2023-04-01T06:48:39.918Z,10.06
2023-04-01T06:51:22.303Z,9.98
2023-04-01T06:53:56.955Z,10.13
2023-04-01T06:56:30.184Z,10.04
2023-04-01T06:59:02.912Z,10.18
2023-04-01T07:01:38.849Z,10.17
2023-04-01T07:04:12.246Z,10.33
2023-04-01T07:06:46.292Z,10.19
2023-04-01T07:09:18.700Z,10.39
2023-04-01T07:11:48.049Z,10.49
2023-04-01T07:14:22.489Z,10.63
2023-04-01T07:16:54.259Z,10.54
2023-04-01T07:19:28.153Z,10.89
2023-04-01T07:22:01.127Z,11.17
2023-04-01T07:24:35.359Z,11.43
2023-04-01T07:27:03.639Z,11.65
2023-04-01T07:29:33.279Z,11.75
2023-04-01T07:32:20.454Z,11.91
2023-04-01T07:34:58.434Z,12.06
2023-04-01T07:37:33.466Z,12.18
2023-04-01T07:40:15.366Z,12.35
2023-04-01T07:42:57.669Z,12.50
2023-04-01T07:45:32.773Z,12.67
2023-04-01T07:48:18.426Z,12.78
2023-04-01T07:50:53.641Z,12.88
2023-04-01T07:53:27.529Z,13.25
2023-04-01T07:56:05.790Z,13.47
2023-04-01T07:58:42.924Z,13.54
2023-04-01T08:01:20.042Z,13.64
2023-04-01T08:04:11.374Z,13.18
2023-04-01T08:06:45.767Z,14.20
2023-04-01T08:09:23.644Z,14.23
2023-04-01T08:12:06.190Z,14.30
2023-04-01T08:14:46.418Z,13.83
2023-04-01T08:17:20.878Z,14.39
2023-04-01T08:20:13.097Z,14.13
2023-04-01T08:22:44.520Z,13.96
2023-04-01T08:25:19.525Z,14.07
2023-04-01T08:27:51.107Z,14.23
2023-04-01T08:30:22.057Z,14.28
2023-04-01T08:32:58.174Z,14.00
2023-04-01T08:35:34.900Z,13.90
2023-04-01T08:38:13.086Z,13.82
2023-04-01T08:40:59.766Z,14.24
2023-04-01T08:43:49.342Z,14.28
2023-04-01T08:46:50.749Z,14.43
2023-04-01T08:49:32.639Z,14.40
2023-04-01T08:52:18.963Z,14.35
2023-04-01T08:54:59.524Z,14.42
2023-04-01T08:57:43.227Z,14.56
2023-04-01T09:00:23.335Z,14.56
2023-04-01T09:03:13.512Z,14.54
2023-04-01T09:06:07.141Z,14.56
2023-04-01T09:08:53.145Z,14.64
2023-04-01T09:11:36.079Z,14.73
2023-04-01T09:14:30.186Z,14.82
2023-04-01T09:17:21.309Z,15.02
2023-04-01T09:20:17.555Z,15.14
2023-04-01T09:23:00.583Z,15.21
2023-04-01T09:25:56.084Z,15.15
2023-04-01T09:28:31.280Z,15.22
2023-04-01T09:31:12.643Z,15.26
2023-04-01T09:34:12.154Z,15.25
2023-04-01T09:36:47.040Z,15.31
2023-04-01T09:39:44.090Z,15.45
2023-04-01T09:42:39.953Z,15.57
2023-04-01T09:45:16.362Z,15.68
2023-04-01T09:47:56.816Z,15.70
2023-04-01T09:50:48.619Z,15.60
2023-04-01T09:53:30.332Z,15.55
2023-04-01T09:56:25.351Z,15.39
2023-04-01T09:59:29.345Z,15.28
2023-04-01T10:02:28.544Z,15.06
2023-04-01T10:05:36.084Z,15.27
2023-04-01T10:08:39.495Z,15.19
2023-04-01T10:11:25.081Z,15.34
2023-04-01T10:14:31.560Z,15.27
2023-04-01T10:17:41.417Z,15.19
2023-04-01T10:20:39.990Z,15.33
2023-04-01T10:23:55.705Z,15.40
2023-04-01T10:26:42.452Z,15.28
2023-04-01T10:29:54.839Z,15.30
2023-04-01T10:32:56.990Z,15.11
2023-04-01T10:35:56.425Z,15.34
2023-04-01T10:39:24.335Z,15.36
2023-04-01T10:42:28.337Z,15.29
2023-04-01T10:45:37.898Z,15.32
2023-04-01T10:48:59.399Z,15.40
2023-04-01T10:52:01.567Z,15.35
2023-04-01T10:54:46.514Z,15.52
2023-04-01T10:57:45.019Z,15.59
2023-04-01T11:01:01.257Z,15.75
2023-04-01T11:04:07.816Z,15.78
2023-04-01T11:07:09.204Z,15.89
2023-04-01T11:10:24.278Z,15.94
2023-04-01T11:13:44.325Z,16.23
2023-04-01T11:16:45.766Z,16.21
2023-04-01T11:19:44.266Z,16.12
2023-04-01T11:22:26.996Z,16.20
2023-04-01T11:25:22.817Z,16.07
2023-04-01T11:28:19.762Z,15.36
2023-04-01T11:31:04.766Z,15.52
2023-04-01T11:33:39.824Z,15.31
2023-04-01T11:36:28.727Z,15.99
2023-04-01T11:39:10.492Z,15.74
2023-04-01T11:41:46.315Z,15.74
2023-04-01T11:44:20.274Z,15.87
2023-04-01T11:47:17.757Z,15.79
2023-04-01T11:49:59.342Z,15.78
2023-04-01T11:52:42.670Z,15.93
2023-04-01T11:55:27.216Z,15.81
2023-04-01T11:58:33.742Z,16.07
2023-04-01T12:01:22.896Z,16.10
2023-04-01T12:04:06.645Z,16.12
2023-04-01T12:06:40.495Z,16.28
2023-04-01T12:09:17.305Z,16.10
2023-04-01T12:11:54.302Z,16.40
2023-04-01T12:14:29.935Z,16.39
2023-04-01T12:17:11.787Z,16.23
2023-04-01T12:19:51.026Z,16.30
2023-04-01T12:22:35.026Z,16.12
2023-04-01T12:25:21.894Z,16.32
2023-04-01T12:28:02.938Z,16.23
2023-04-01T12:30:50.037Z,16.36
2023-04-01T12:33:43.960Z,15.90
2023-04-01T12:36:34.640Z,16.41
2023-04-01T12:39:22.848Z,16.45
2023-04-01T12:41:57.557Z,16.35
2023-04-01T12:44:50.811Z,16.43
2023-04-01T12:47:51.008Z,16.46
2023-04-01T12:50:29.199Z,16.46
2023-04-01T12:53:12.648Z,16.11
2023-04-01T12:55:42.865Z,16.36
2023-04-01T12:58:55.140Z,16.27
2023-04-01T13:01:38.850Z,16.04
2023-04-01T13:04:42.108Z,16.13
2023-04-01T13:07:29.835Z,16.18
2023-04-01T13:10:08.056Z,16.22
2023-04-01T13:12:53.642Z,16.21
2023-04-01T13:15:34.244Z,16.06
2023-04-01T13:18:16.987Z,16.24
2023-04-01T13:20:51.930Z,16.30
2023-04-01T13:23:35.476Z,15.95
2023-04-01T13:26:15.240Z,16.52
2023-04-01T13:28:50.124Z,16.65
2023-04-01T13:31:32.056Z,17.19
2023-04-01T13:34:17.717Z,17.52
2023-04-01T13:37:02.619Z,17.87
2023-04-01T13:39:44.101Z,18.19
2023-04-01T13:42:21.393Z,18.42
2023-04-01T13:44:54.630Z,17.88
2023-04-01T13:47:52.014Z,18.42
2023-04-01T13:50:35.010Z,18.61
2023-04-01T13:53:39.848Z,18.88
2023-04-01T13:56:21.895Z,18.86
2023-04-01T13:59:05.892Z,18.90
2023-04-01T14:01:41.317Z,18.77
2023-04-01T14:04:52.259Z,18.63
2023-04-01T14:07:44.554Z,18.72
2023-04-01T14:10:25.676Z,18.98
2023-04-01T14:13:02.514Z,19.21
2023-04-01T14:15:43.973Z,19.29
2023-04-01T14:18:30.155Z,19.47
2023-04-01T14:21:12.898Z,19.04
2023-04-01T14:23:54.429Z,19.47
2023-04-01T14:26:52.496Z,19.54
2023-04-01T14:29:32.219Z,19.83
2023-04-01T14:32:12.718Z,19.92
2023-04-01T14:35:01.676Z,20.28
2023-04-01T14:37:57.607Z,20.76
2023-04-01T14:40:43.111Z,21.09
2023-04-01T14:43:27.696Z,21.24
2023-04-01T14:46:28.481Z,21.60
2023-04-01T14:49:03.727Z,21.90
2023-04-01T14:51:57.538Z,22.15
2023-04-01T14:54:40.842Z,24.39
2023-04-01T14:57:14.441Z,25.91
2023-04-01T14:59:48.192Z,26.68
2023-04-01T15:02:39.510Z,26.50
2023-04-01T15:05:18.819Z,25.37
2023-04-01T15:08:12.068Z,24.67
2023-04-01T15:10:52.189Z,24.73
2023-04-01T15:13:31.760Z,24.99
2023-04-01T15:16:12.024Z,25.20
2023-04-01T15:18:52.242Z,26.32
2023-04-01T15:22:01.409Z,27.98
2023-04-01T15:24:48.343Z,29.38
2023-04-01T15:27:32.294Z,30.24
2023-04-01T15:30:31.385Z,30.02
2023-04-01T15:33:17.118Z,30.01
2023-04-01T15:35:51.684Z,29.67
2023-04-01T15:38:31.989Z,29.77
2023-04-01T15:41:10.128Z,29.23
2023-04-01T15:43:44.925Z,29.22
2023-04-01T15:46:27.013Z,29.21
2023-04-01T15:49:07.015Z,29.11
2023-04-01T15:51:47.790Z,28.63
2023-04-01T15:54:28.507Z,29.32
2023-04-01T15:57:08.250Z,29.63
2023-04-01T15:59:55.837Z,30.98
2023-04-01T16:02:33.418Z,30.76
2023-04-01T16:05:07.832Z,29.52
2023-04-01T16:08:05.434Z,29.16
2023-04-01T16:11:06.202Z,29.98
2023-04-01T16:13:47.296Z,30.72
2023-04-01T16:16:24.533Z,28.48
2023-04-01T16:19:08.710Z,26.76
2023-04-01T16:21:40.585Z,24.46
2023-04-01T16:24:19.534Z,23.51
2023-04-01T16:26:55.127Z,22.69
2023-04-01T16:29:33.034Z,21.02
2023-04-01T16:32:21.450Z,20.97
2023-04-01T16:35:01.008Z,20.07
2023-04-01T16:37:38.653Z,19.29
2023-04-01T16:40:18.807Z,17.98
2023-04-01T16:42:53.446Z,18.59
2023-04-01T16:45:35.591Z,18.13
2023-04-01T16:48:13.675Z,17.64
2023-04-01T16:50:56.116Z,17.20
2023-04-01T16:53:34.784Z,16.77
2023-04-01T16:56:11.216Z,16.49
2023-04-01T16:58:44.602Z,16.14
2023-04-01T17:01:18.666Z,16.44
2023-04-01T17:03:48.367Z,16.34
2023-04-01T17:06:29.402Z,16.05
2023-04-01T17:09:25.483Z,15.87
2023-04-01T17:12:03.802Z,15.72
2023-04-01T17:14:42.857Z,15.50
2023-04-01T17:17:29.899Z,15.59
2023-04-01T17:20:17.533Z,15.53
2023-04-01T17:22:55.507Z,15.46
2023-04-01T17:25:36.669Z,15.34
2023-04-01T17:28:18.889Z,15.08
2023-04-01T17:30:55.779Z,15.16
2023-04-01T17:33:58.991Z,14.97
2023-04-01T17:36:39.673Z,15.03
2023-04-01T17:39:25.323Z,15.02
2023-04-01T17:41:58.854Z,14.88
2023-04-01T17:44:38.452Z,14.97
2023-04-01T17:47:24.031Z,14.88
2023-04-01T17:50:02.640Z,14.65
2023-04-01T17:52:34.549Z,13.24
2023-04-01T17:55:32.679Z,14.54
2023-04-01T17:58:06.109Z,14.59
2023-04-01T18:00:53.133Z,14.54
2023-04-01T18:03:34.459Z,14.27
2023-04-01T18:06:12.185Z,14.33
2023-04-01T18:09:00.346Z,14.41
2023-04-01T18:11:41.463Z,14.11
2023-04-01T18:14:57.181Z,14.31
2023-04-01T18:17:28.195Z,14.34
2023-04-01T18:20:09.975Z,14.40
2023-04-01T18:22:45.251Z,14.40
2023-04-01T18:25:23.725Z,14.38
2023-04-01T18:27:56.027Z,14.38
2023-04-01T18:30:30.881Z,14.35
2023-04-01T18:33:04.992Z,14.31
2023-04-01T18:35:51.396Z,14.30
2023-04-01T18:38:27.255Z,14.26
2023-04-01T18:41:12.448Z,14.19
2023-04-01T18:43:46.404Z,13.98
2023-04-01T18:46:23.544Z,14.15
2023-04-01T18:49:02.364Z,14.09
2023-04-01T18:51:46.962Z,13.92
2023-04-01T18:54:20.902Z,13.70
2023-04-01T18:56:49.449Z,13.56
2023-04-01T18:59:21.391Z,13.32
2023-04-01T19:01:54.579Z,13.19
2023-04-01T19:04:27.054Z,13.01
2023-04-01T19:06:58.116Z,12.93
2023-04-01T19:09:27.610Z,12.80
2023-04-01T19:12:02.288Z,12.58
2023-04-01T19:14:35.134Z,12.54
2023-04-01T19:17:06.943Z,12.43
2023-04-01T19:19:42.778Z,12.35
2023-04-01T19:22:25.489Z,12.31
2023-04-01T19:25:05.162Z,12.29
2023-04-01T19:27:37.656Z,12.13
2023-04-01T19:30:20.366Z,12.07
2023-04-01T19:32:52.153Z,12.07
2023-04-01T19:35:26.464Z,11.82
2023-04-01T19:37:58.742Z,11.88
2023-04-01T19:40:45.413Z,11.80
2023-04-01T19:43:21.141Z,11.68
2023-04-01T19:45:52.019Z,11.58
2023-04-01T19:48:29.639Z,11.56
2023-04-01T19:51:00.256Z,11.43
2023-04-01T19:53:32.825Z,11.34
2023-04-01T19:56:04.181Z,11.37
2023-04-01T19:58:35.424Z,11.43
2023-04-01T20:01:05.958Z,11.51
2023-04-01T20:03:38.700Z,11.47
2023-04-01T20:06:13.186Z,11.41
2023-04-01T20:08:45.941Z,11.37
2023-04-01T20:11:20.730Z,11.30
2023-04-01T20:13:54.647Z,11.48
2023-04-01T20:16:23.605Z,11.57
2023-04-01T20:18:54.697Z,11.56
2023-04-01T20:21:29.410Z,11.47
2023-04-01T20:24:01.120Z,11.46
2023-04-01T20:26:31.638Z,11.47
2023-04-01T20:29:23.262Z,11.38
2023-04-01T20:32:13.883Z,11.33
2023-04-01T20:35:01.166Z,11.25
2023-04-01T20:37:35.939Z,11.25
2023-04-01T20:40:18.628Z,11.27
2023-04-01T20:43:01.238Z,11.22
2023-04-01T20:45:34.710Z,11.14
2023-04-01T20:48:12.864Z,11.21
2023-04-01T20:50:44.157Z,11.07
2023-04-01T20:53:14.419Z,11.01
2023-04-01T20:55:58.852Z,11.13
2023-04-01T20:58:31.756Z,11.06
2023-04-01T21:01:07.234Z,11.08
2023-04-01T21:03:43.110Z,11.15
2023-04-01T21:06:23.395Z,11.23
2023-04-01T21:08:56.823Z,11.29
2023-04-01T21:11:30.376Z,11.31
2023-04-01T21:14:13.489Z,11.30
2023-04-01T21:16:49.279Z,11.32
2023-04-01T21:19:35.334Z,11.16
2023-04-01T21:22:22.146Z,11.19
2023-04-01T21:25:23.610Z,11.29
2023-04-01T21:28:08.358Z,11.53
2023-04-01T21:30:51.520Z,11.53
2023-04-01T21:33:43.767Z,11.46
2023-04-01T21:36:26.141Z,11.55
2023-04-01T21:39:07.649Z,11.58
2023-04-01T21:42:04.849Z,11.46
2023-04-01T21:44:45.353Z,11.23
2023-04-01T21:47:47.047Z,11.56
2023-04-01T21:50:44.684Z,11.55
2023-04-01T21:53:33.455Z,11.59
2023-04-01T21:56:31.701Z,11.57
2023-04-01T21:59:29.593Z,11.60
2023-04-01T22:02:36.055Z,11.50
2023-04-01T22:05:09.648Z,11.60
2023-04-01T22:07:43.075Z,11.37
2023-04-01T22:10:21.737Z,11.53
2023-04-01T22:12:55.993Z,11.55
2023-04-01T22:15:33.480Z,11.42
2023-04-01T22:18:15.104Z,11.50
2023-04-01T22:20:50.494Z,11.42
2023-04-01T22:23:28.660Z,11.28
2023-04-01T22:26:04.276Z,11.42
2023-04-01T22:28:39.324Z,11.29
2023-04-01T22:31:12.294Z,11.35
2023-04-01T22:33:50.711Z,11.35
2023-04-01T22:36:25.997Z,11.35
2023-04-01T22:39:07.171Z,11.37
2023-04-01T22:41:50.477Z,10.98
2023-04-01T22:44:29.435Z,11.25
2023-04-01T22:47:07.888Z,11.16
2023-04-01T22:49:44.094Z,11.16
2023-04-01T22:52:20.766Z,11.01
2023-04-01T22:54:53.544Z,11.10
2023-04-01T22:57:39.304Z,10.94
2023-04-01T23:00:10.941Z,11.10
2023-04-01T23:02:42.791Z,10.99
2023-04-01T23:05:18.296Z,11.10
2023-04-01T23:07:51.199Z,11.03
2023-04-01T23:10:26.006Z,11.21
2023-04-01T23:12:57.136Z,11.07
2023-04-01T23:15:25.691Z,10.98
2023-04-01T23:18:08.255Z,10.97
2023-04-01T23:20:56.305Z,10.91
2023-04-01T23:23:36.671Z,10.98
2023-04-01T23:26:10.653Z,10.88
2023-04-01T23:28:48.551Z,10.79
2023-04-01T23:31:39.099Z,10.70
2023-04-01T23:34:30.566Z,10.65
2023-04-01T23:37:04.279Z,10.69
2023-04-01T23:39:36.827Z,10.62
2023-04-01T23:42:08.063Z,10.63
2023-04-01T23:44:38.405Z,10.67
2023-04-01T23:47:10.220Z,10.56
2023-04-01T23:49:42.016Z,10.54
2023-04-01T23:52:19.586Z,10.45
2023-04-01T23:54:53.795Z,10.36
2023-04-01T23:57:26.508Z,10.36
